Casca, Brazil
Current Conditions -  °F | °C
As of 10:00 PM on Friday 28 Nov 2014 (Local Time) from SBPF Reporting Station
Clear Clear  
Wind Chill: 73°   Ceiling: Unl
Heat Index: 73°   Visibility: 6mi
Dew Point: 59°   Wind: 12mph
Humidity: 61%   Direction: 150°SSE
Pressure: 30"   Gusts: NA
Location:  28.56°S, 51.98°W
Report Text: SBPF 290000Z 15010KT CAVOK 23/15 Q1016
Loading
Personal Weather Stations






























Interactive Weather Map New forecast layout! Learn more

10-Day Weather Forecast

Advertisements
Track Severe Weather on mobile